createdAt,value
2019-04-30T00:00:53.149Z,8.30
2019-04-30T00:03:31.037Z,7.83
2019-04-30T00:05:59.331Z,9.08
2019-04-30T00:08:30.266Z,9.13
2019-04-30T00:10:57.250Z,9.00
2019-04-30T00:13:25.912Z,8.60
2019-04-30T00:15:58.747Z,9.35
2019-04-30T00:18:25.329Z,8.30
2019-04-30T00:20:55.187Z,8.68
2019-04-30T00:23:27.136Z,9.50
2019-04-30T00:25:53.448Z,9.28
2019-04-30T00:33:22.048Z,8.33
2019-04-30T00:38:36.093Z,7.70
2019-04-30T00:41:01.897Z,8.83
2019-04-30T00:45:59.307Z,8.10
2019-04-30T00:48:31.081Z,8.00
2019-04-30T00:50:56.904Z,7.80
2019-04-30T00:53:26.268Z,7.80
2019-04-30T00:55:55.644Z,7.87
2019-04-30T00:58:29.923Z,7.85
2019-04-30T01:01:11.436Z,8.48
2019-04-30T01:03:46.431Z,8.10
2019-04-30T01:06:11.226Z,8.88
2019-04-30T01:08:39.498Z,8.38
2019-04-30T01:11:09.573Z,7.20
2019-04-30T01:13:38.904Z,7.45
2019-04-30T01:16:07.264Z,7.80
2019-04-30T01:21:07.861Z,6.87
2019-04-30T01:23:33.868Z,6.80
2019-04-30T01:26:01.862Z,7.25
2019-04-30T01:31:01.901Z,7.95
2019-04-30T01:33:34.515Z,7.37
2019-04-30T01:35:59.734Z,7.72
2019-04-30T01:38:28.671Z,7.90
2019-04-30T01:43:31.443Z,8.70
2019-04-30T01:45:54.669Z,8.05
2019-04-30T01:48:22.860Z,8.20
2019-04-30T01:56:19.164Z,9.70
2019-04-30T01:58:59.506Z,8.75
2019-04-30T02:01:31.104Z,9.68
2019-04-30T02:03:58.938Z,10.53
2019-04-30T02:06:27.189Z,9.48
2019-04-30T02:08:55.140Z,10.30
2019-04-30T02:11:23.459Z,11.57
2019-04-30T02:13:51.737Z,11.97
2019-04-30T02:16:21.168Z,12.30
2019-04-30T02:18:49.658Z,11.38
2019-04-30T02:21:19.538Z,12.28
2019-04-30T02:26:16.499Z,11.95
2019-04-30T02:28:45.088Z,12.18
2019-04-30T02:31:13.377Z,12.37
2019-04-30T02:33:43.477Z,11.70
2019-04-30T02:36:29.934Z,14.20
2019-04-30T02:38:59.545Z,12.73
2019-04-30T02:41:29.274Z,13.10
2019-04-30T02:43:59.899Z,13.93
2019-04-30T02:46:32.388Z,16.48
2019-04-30T02:54:15.646Z,14.50
2019-04-30T02:59:14.285Z,13.50
2019-04-30T03:01:42.811Z,14.40
2019-04-30T03:04:10.814Z,13.23
2019-04-30T03:06:40.214Z,13.23
2019-04-30T03:09:10.281Z,13.88
2019-04-30T03:11:40.562Z,14.90
2019-04-30T03:14:10.228Z,14.30
2019-04-30T03:17:06.523Z,13.50
2019-04-30T03:19:50.193Z,13.85
2019-04-30T03:22:20.502Z,14.45
2019-04-30T03:24:50.171Z,14.55
2019-04-30T03:29:46.609Z,16.07
2019-04-30T03:32:15.229Z,16.20
2019-04-30T03:34:43.539Z,16.20
2019-04-30T03:37:11.448Z,15.55
2019-04-30T03:39:40.125Z,15.05
2019-04-30T03:42:09.936Z,14.10
2019-04-30T03:44:40.034Z,14.90
2019-04-30T03:47:10.846Z,15.58
2019-04-30T03:49:40.254Z,14.70
2019-04-30T03:54:36.727Z,16.95
2019-04-30T03:57:04.653Z,15.75
2019-04-30T03:59:32.940Z,14.70
2019-04-30T04:02:20.846Z,15.50
2019-04-30T04:04:53.096Z,15.23
2019-04-30T04:07:40.481Z,15.30
2019-04-30T04:10:24.106Z,14.73
2019-04-30T04:12:52.889Z,16.32
2019-04-30T04:15:20.882Z,15.75
2019-04-30T04:20:20.283Z,16.70
2019-04-30T04:22:49.720Z,14.65
2019-04-30T04:25:20.505Z,15.20
2019-04-30T04:27:50.563Z,16.40
2019-04-30T04:30:20.414Z,17.67
2019-04-30T04:32:50.101Z,16.45
2019-04-30T04:35:19.726Z,16.30
2019-04-30T04:37:49.488Z,16.62
2019-04-30T04:40:20.873Z,17.70
2019-04-30T04:42:49.371Z,17.92
2019-04-30T04:45:19.980Z,17.65
2019-04-30T04:47:50.342Z,16.70
2019-04-30T04:50:20.017Z,15.75
2019-04-30T04:52:49.557Z,16.23
2019-04-30T04:55:21.767Z,16.73
2019-04-30T04:57:49.872Z,16.07
2019-04-30T05:00:19.456Z,16.87
2019-04-30T05:03:15.157Z,17.77
2019-04-30T05:05:43.437Z,17.17
2019-04-30T05:08:11.385Z,18.57
2019-04-30T05:10:39.370Z,17.57
2019-04-30T05:13:09.206Z,18.85
2019-04-30T05:15:39.040Z,17.67
2019-04-30T05:18:09.055Z,17.20
2019-04-30T05:23:05.469Z,15.80
2019-04-30T05:25:33.772Z,14.60
2019-04-30T05:28:02.455Z,13.75
2019-04-30T05:30:30.413Z,12.70
2019-04-30T05:32:58.959Z,11.33
2019-04-30T05:37:55.541Z,12.17
2019-04-30T05:40:24.131Z,12.18
2019-04-30T05:45:20.356Z,12.10
2019-04-30T05:47:50.479Z,10.43
2019-04-30T05:50:20.000Z,10.10
2019-04-30T05:52:49.309Z,10.60
2019-04-30T05:55:19.590Z,9.25
2019-04-30T05:57:53.828Z,11.40
2019-04-30T06:00:18.913Z,9.40
2019-04-30T06:02:49.734Z,9.37
2019-04-30T06:05:18.792Z,6.62
2019-04-30T06:07:51.572Z,6.60
2019-04-30T06:10:29.439Z,41.13
2019-04-30T06:13:06.206Z,13.35
2019-04-30T06:15:41.372Z,9.20
2019-04-30T06:18:13.607Z,7.40
2019-04-30T06:20:39.666Z,6.10
2019-04-30T06:23:09.572Z,6.65
2019-04-30T06:25:55.738Z,6.65
2019-04-30T06:28:09.824Z,6.50
2019-04-30T06:30:39.647Z,6.70
2019-04-30T06:33:09.352Z,6.35
2019-04-30T06:35:39.145Z,6.00
2019-04-30T06:40:35.798Z,6.33
2019-04-30T06:43:03.766Z,6.80
2019-04-30T06:45:32.674Z,7.33
2019-04-30T06:48:02.505Z,7.30
2019-04-30T06:50:31.074Z,7.92
2019-04-30T06:53:01.527Z,8.00
2019-04-30T06:55:30.864Z,8.20
2019-04-30T06:58:11.442Z,7.80
2019-04-30T07:00:36.200Z,7.60
2019-04-30T07:03:04.429Z,8.10
2019-04-30T07:05:32.698Z,7.58
2019-04-30T07:08:19.032Z,7.87
2019-04-30T07:10:55.002Z,7.60
2019-04-30T07:13:20.873Z,7.60
2019-04-30T07:18:18.910Z,7.65
2019-04-30T07:20:48.640Z,8.50
2019-04-30T07:23:18.830Z,8.25
2019-04-30T07:25:51.398Z,8.30
2019-04-30T07:28:18.960Z,8.30
2019-04-30T07:30:49.352Z,9.20
2019-04-30T07:33:20.779Z,9.30
2019-04-30T07:35:47.017Z,9.20
2019-04-30T07:38:15.309Z,9.10
2019-04-30T07:43:11.894Z,9.20
2019-04-30T07:45:39.913Z,9.40
2019-04-30T07:50:37.054Z,9.28
2019-04-30T07:53:07.241Z,9.80
2019-04-30T07:55:35.989Z,9.53
2019-04-30T07:58:05.140Z,9.40
2019-04-30T08:00:33.810Z,9.78
2019-04-30T08:03:21.166Z,11.40
2019-04-30T08:05:50.291Z,13.50
2019-04-30T08:08:24.605Z,11.83
2019-04-30T08:13:17.083Z,10.97
2019-04-30T08:15:45.883Z,10.50
2019-04-30T08:18:14.182Z,11.40
2019-04-30T08:23:20.148Z,12.45
2019-04-30T08:25:40.841Z,12.50
2019-04-30T08:28:09.206Z,11.40
2019-04-30T08:30:39.021Z,12.00
2019-04-30T08:33:09.289Z,11.25
2019-04-30T08:35:37.365Z,10.60
2019-04-30T08:38:05.345Z,11.90
2019-04-30T08:40:33.601Z,11.70
2019-04-30T08:43:01.868Z,11.63
2019-04-30T08:45:34.423Z,11.70
2019-04-30T08:50:29.868Z,12.00
2019-04-30T08:52:59.772Z,11.60
2019-04-30T08:55:30.343Z,13.18
2019-04-30T08:58:09.638Z,12.50
2019-04-30T09:00:29.727Z,12.70
2019-04-30T09:02:59.365Z,12.93
2019-04-30T09:05:45.753Z,13.70
2019-04-30T09:08:14.400Z,13.88
2019-04-30T09:10:42.779Z,12.70
2019-04-30T09:13:11.456Z,12.50
2019-04-30T09:15:40.144Z,13.60
2019-04-30T09:18:12.470Z,13.25
2019-04-30T09:20:39.081Z,13.30
2019-04-30T09:23:09.556Z,12.68
2019-04-30T09:25:39.610Z,12.70
2019-04-30T09:30:35.781Z,15.83
2019-04-30T09:33:03.716Z,16.60
2019-04-30T09:38:01.975Z,16.47
2019-04-30T09:40:32.299Z,17.90
2019-04-30T09:43:00.410Z,13.78
2019-04-30T09:45:28.938Z,13.00
2019-04-30T09:47:59.268Z,14.23
2019-04-30T09:50:28.973Z,14.13
2019-04-30T09:52:57.970Z,12.15
2019-04-30T09:55:28.922Z,12.98
2019-04-30T09:57:58.898Z,13.43
2019-04-30T10:02:55.725Z,12.80
2019-04-30T10:05:23.631Z,13.40
2019-04-30T10:07:51.554Z,11.55
2019-04-30T10:10:26.378Z,13.45
2019-04-30T10:12:54.632Z,13.13
2019-04-30T10:16:00.095Z,13.00
2019-04-30T10:18:28.665Z,12.65
2019-04-30T10:20:56.608Z,12.28
2019-04-30T10:23:24.597Z,11.80
2019-04-30T10:25:53.182Z,11.80
2019-04-30T10:28:24.104Z,11.73
2019-04-30T10:33:20.350Z,12.23
2019-04-30T10:35:49.596Z,11.45
2019-04-30T10:38:19.503Z,11.57
2019-04-30T10:40:48.741Z,11.78
2019-04-30T10:43:17.164Z,11.30
2019-04-30T10:45:45.438Z,10.25
2019-04-30T10:48:13.374Z,9.60
2019-04-30T10:50:41.521Z,8.23
2019-04-30T10:53:12.253Z,7.80
2019-04-30T10:55:39.814Z,8.83
2019-04-30T11:00:38.957Z,7.40
2019-04-30T11:03:17.285Z,9.00
2019-04-30T11:05:40.733Z,8.00
2019-04-30T11:08:07.885Z,7.87
2019-04-30T11:10:36.197Z,7.53
2019-04-30T11:13:04.687Z,7.00
2019-04-30T11:15:32.975Z,8.10
2019-04-30T11:18:01.159Z,9.28
2019-04-30T11:20:29.870Z,10.65
2019-04-30T11:22:58.205Z,11.53
2019-04-30T11:25:27.022Z,11.20
2019-04-30T11:27:56.012Z,11.50
2019-04-30T11:30:24.738Z,12.07
2019-04-30T11:32:53.865Z,11.30
2019-04-30T11:35:22.421Z,11.70
2019-04-30T11:37:50.636Z,11.12
2019-04-30T11:42:50.962Z,11.90
2019-04-30T11:45:21.793Z,12.83
2019-04-30T11:47:53.658Z,11.85
2019-04-30T11:50:20.280Z,11.45
2019-04-30T11:52:48.589Z,11.73
2019-04-30T11:55:19.195Z,11.93
2019-04-30T12:00:19.671Z,11.33
2019-04-30T12:02:52.157Z,10.90
2019-04-30T12:05:20.520Z,10.50
2019-04-30T12:10:56.437Z,11.25
2019-04-30T12:15:54.121Z,8.40
2019-04-30T12:18:22.115Z,10.93
2019-04-30T12:20:50.412Z,10.90
2019-04-30T12:23:18.994Z,10.75
2019-04-30T12:25:49.274Z,10.53
2019-04-30T12:30:46.139Z,10.45
2019-04-30T12:33:16.514Z,11.53
2019-04-30T12:35:44.661Z,10.18
2019-04-30T12:38:13.170Z,10.30
2019-04-30T12:40:41.755Z,9.30
2019-04-30T12:43:09.692Z,9.10
2019-04-30T12:45:39.314Z,9.08
2019-04-30T12:50:54.560Z,9.10
2019-04-30T12:56:26.671Z,9.43
2019-04-30T12:58:48.041Z,9.60
2019-04-30T13:01:16.135Z,8.70
2019-04-30T13:03:55.960Z,8.80
2019-04-30T13:08:43.188Z,9.10
2019-04-30T13:11:13.122Z,8.53
2019-04-30T13:13:41.887Z,7.03
2019-04-30T13:16:10.666Z,8.03
2019-04-30T13:18:39.451Z,7.90
2019-04-30T13:21:08.591Z,8.00
2019-04-30T13:26:05.313Z,7.50
2019-04-30T13:28:43.275Z,7.20
2019-04-30T13:33:51.164Z,7.17
2019-04-30T13:38:59.499Z,13.28
2019-04-30T13:41:46.136Z,9.73
2019-04-30T13:44:21.218Z,8.40
2019-04-30T13:49:17.674Z,7.28
2019-04-30T13:51:45.914Z,8.08
2019-04-30T13:54:13.896Z,7.65
2019-04-30T13:56:41.844Z,8.45
2019-04-30T13:59:09.844Z,8.00
2019-04-30T14:01:39.062Z,9.23
2019-04-30T14:07:18.742Z,11.60
2019-04-30T14:12:15.333Z,11.75
2019-04-30T14:14:43.958Z,10.40
2019-04-30T14:17:12.194Z,9.90
2019-04-30T14:19:40.133Z,9.63
2019-04-30T14:22:09.391Z,9.50
2019-04-30T14:24:37.354Z,9.80
2019-04-30T14:27:05.604Z,9.70
2019-04-30T14:32:02.099Z,9.70
2019-04-30T14:34:30.065Z,9.83
2019-04-30T14:39:29.079Z,10.38
2019-04-30T14:41:57.492Z,9.30
2019-04-30T14:44:31.187Z,9.80
2019-04-30T14:47:17.041Z,11.57
2019-04-30T14:50:18.484Z,10.40
2019-04-30T14:53:11.158Z,11.60
2019-04-30T14:55:49.565Z,11.57
2019-04-30T15:01:22.728Z,12.20
2019-04-30T15:03:50.709Z,11.00
2019-04-30T15:06:19.472Z,10.90
2019-04-30T15:08:49.071Z,11.00
2019-04-30T15:13:46.017Z,10.35
2019-04-30T15:16:14.024Z,10.70
2019-04-30T15:18:41.924Z,9.25
2019-04-30T15:21:10.181Z,8.73
2019-04-30T15:23:58.680Z,10.60
2019-04-30T15:26:22.900Z,8.58
2019-04-30T15:28:49.368Z,9.35
2019-04-30T15:31:18.475Z,8.70
2019-04-30T15:36:36.956Z,9.80
2019-04-30T15:39:11.032Z,10.58
2019-04-30T15:44:07.800Z,11.00
2019-04-30T15:46:35.799Z,11.20
2019-04-30T15:51:33.350Z,11.57
2019-04-30T15:54:01.320Z,11.12
2019-04-30T15:56:37.035Z,11.12
2019-04-30T15:59:16.606Z,11.10
2019-04-30T16:01:48.412Z,11.45
2019-04-30T16:04:18.640Z,11.68
2019-04-30T16:06:49.046Z,12.47
2019-04-30T16:12:01.021Z,12.18
2019-04-30T16:14:32.776Z,11.73
2019-04-30T16:17:29.317Z,12.30
2019-04-30T16:22:26.568Z,12.33
2019-04-30T16:24:54.949Z,12.33
2019-04-30T16:27:25.506Z,12.25
2019-04-30T16:29:53.418Z,13.70
2019-04-30T16:32:22.718Z,13.05
2019-04-30T16:34:51.000Z,11.50
2019-04-30T16:37:20.234Z,12.20
2019-04-30T16:42:16.738Z,11.33
2019-04-30T16:44:44.696Z,11.60
2019-04-30T16:47:16.243Z,10.35
2019-04-30T16:49:42.309Z,10.35
2019-04-30T16:52:10.258Z,10.45
2019-04-30T16:57:07.077Z,10.13
2019-04-30T16:59:40.194Z,9.80
2019-04-30T17:02:09.360Z,9.53
2019-04-30T17:04:46.270Z,9.50
2019-04-30T17:07:35.362Z,9.78
2019-04-30T17:10:11.617Z,9.10
2019-04-30T17:12:52.677Z,12.18
2019-04-30T17:15:23.746Z,13.97
2019-04-30T17:20:21.063Z,11.68
2019-04-30T17:22:49.634Z,12.33
2019-04-30T17:25:17.946Z,10.40
2019-04-30T17:27:46.220Z,11.10
2019-04-30T17:30:14.572Z,13.70
2019-04-30T17:32:44.105Z,11.50
2019-04-30T17:35:12.077Z,10.33
2019-04-30T17:37:40.074Z,11.38
2019-04-30T17:40:09.475Z,11.33
2019-04-30T17:42:37.852Z,12.73
2019-04-30T17:47:35.743Z,11.55
2019-04-30T17:50:04.004Z,11.65
2019-04-30T17:55:00.572Z,11.85
2019-04-30T17:57:32.276Z,12.53
2019-04-30T17:59:59.173Z,11.93
2019-04-30T18:02:29.347Z,11.03
2019-04-30T18:04:57.464Z,10.87
2019-04-30T18:07:25.975Z,10.30
2019-04-30T18:09:54.450Z,14.43
2019-04-30T18:12:22.474Z,12.82
2019-04-30T18:14:51.306Z,12.30
2019-04-30T18:17:19.976Z,11.85
2019-04-30T18:20:03.998Z,11.70
2019-04-30T18:22:46.256Z,9.70
2019-04-30T18:25:25.340Z,10.78
2019-04-30T18:27:56.710Z,10.43
2019-04-30T18:30:29.130Z,10.20
2019-04-30T18:32:58.460Z,11.00
2019-04-30T18:37:55.230Z,10.98
2019-04-30T18:40:23.418Z,11.55
2019-04-30T18:42:51.865Z,10.40
2019-04-30T18:45:20.175Z,9.98
2019-04-30T18:47:48.195Z,11.10
2019-04-30T18:50:16.279Z,12.55
2019-04-30T18:52:45.118Z,12.50
2019-04-30T18:55:23.019Z,12.43
2019-04-30T18:57:56.728Z,11.30
2019-04-30T19:00:32.124Z,10.15
2019-04-30T19:03:00.385Z,10.17
2019-04-30T19:05:30.782Z,10.00
2019-04-30T19:08:03.167Z,10.50
2019-04-30T19:10:54.317Z,10.10
2019-04-30T19:13:41.629Z,10.03
2019-04-30T19:19:01.503Z,10.18
2019-04-30T19:21:29.647Z,9.98
2019-04-30T19:23:58.684Z,10.58
2019-04-30T19:26:26.984Z,10.55
2019-04-30T19:28:55.353Z,10.80
2019-04-30T19:33:51.515Z,11.70
2019-04-30T19:36:21.017Z,12.58
2019-04-30T19:41:18.926Z,12.95
2019-04-30T19:43:47.307Z,12.20
2019-04-30T19:48:43.874Z,11.45
2019-04-30T19:51:12.100Z,11.90
2019-04-30T19:56:08.557Z,11.20
2019-04-30T19:58:52.305Z,11.57
2019-04-30T20:01:06.213Z,11.38
2019-04-30T20:03:34.834Z,12.93
2019-04-30T20:06:02.768Z,12.13
2019-04-30T20:08:31.003Z,15.43
2019-04-30T20:10:59.421Z,13.15
2019-04-30T20:13:36.296Z,14.83
2019-04-30T20:15:59.276Z,13.75
2019-04-30T20:18:29.237Z,13.65
2019-04-30T20:21:01.100Z,14.68
2019-04-30T20:23:28.970Z,12.57
2019-04-30T20:25:56.970Z,14.10
2019-04-30T20:28:24.920Z,12.70
2019-04-30T20:30:52.852Z,15.58
2019-04-30T20:33:21.489Z,15.35
2019-04-30T20:38:39.565Z,17.20
2019-04-30T20:41:09.204Z,15.32
2019-04-30T20:43:39.391Z,16.93
2019-04-30T20:46:08.617Z,15.70
2019-04-30T20:48:39.282Z,16.93
2019-04-30T20:51:09.164Z,15.93
2019-04-30T20:56:09.492Z,18.32
2019-04-30T20:58:39.090Z,17.10
2019-04-30T21:01:09.552Z,17.85
2019-04-30T21:03:39.600Z,17.85
2019-04-30T21:06:08.801Z,17.37
2019-04-30T21:08:37.976Z,18.57
2019-04-30T21:11:05.966Z,19.70
2019-04-30T21:13:34.129Z,19.37
2019-04-30T21:16:02.110Z,19.02
2019-04-30T21:18:32.492Z,19.03
2019-04-30T21:20:59.966Z,18.23
2019-04-30T21:23:29.291Z,19.20
2019-04-30T21:25:58.991Z,19.90
2019-04-30T21:28:26.996Z,20.72
2019-04-30T21:30:55.544Z,19.93
2019-04-30T21:33:38.917Z,20.05
2019-04-30T21:36:12.770Z,19.70
2019-04-30T21:38:40.738Z,20.68
2019-04-30T21:41:09.999Z,20.03
2019-04-30T21:43:38.341Z,20.25
2019-04-30T21:46:06.320Z,19.60
2019-04-30T21:48:34.586Z,21.30
2019-04-30T21:51:03.097Z,19.90
2019-04-30T21:53:31.392Z,19.67
2019-04-30T21:55:59.732Z,20.17
2019-04-30T21:58:29.178Z,21.25
2019-04-30T22:01:18.498Z,21.90
2019-04-30T22:03:47.946Z,22.77
2019-04-30T22:06:19.593Z,21.70
2019-04-30T22:08:48.581Z,22.63
2019-04-30T22:11:17.030Z,21.85
2019-04-30T22:13:47.091Z,22.70
2019-04-30T22:16:15.332Z,22.60
2019-04-30T22:18:43.562Z,23.42
2019-04-30T22:21:11.546Z,23.35
2019-04-30T22:23:39.850Z,24.00
2019-04-30T22:26:08.111Z,24.77
2019-04-30T22:28:43.932Z,23.92
2019-04-30T22:31:29.669Z,25.40
2019-04-30T22:34:03.112Z,24.70
2019-04-30T22:37:02.286Z,25.88
2019-04-30T22:39:44.514Z,25.68
2019-04-30T22:42:44.496Z,24.55
2019-04-30T22:45:28.784Z,25.80
2019-04-30T22:47:58.799Z,25.30
2019-04-30T22:50:28.066Z,26.05
2019-04-30T22:52:56.416Z,26.30
2019-04-30T22:55:24.385Z,26.65
2019-04-30T22:57:52.962Z,25.30
2019-04-30T23:00:26.496Z,25.50
2019-04-30T23:03:06.567Z,26.82
2019-04-30T23:05:34.965Z,26.27
2019-04-30T23:08:04.048Z,26.77
2019-04-30T23:10:32.619Z,27.05
2019-04-30T23:13:01.195Z,27.67
2019-04-30T23:15:30.479Z,26.20
2019-04-30T23:17:58.780Z,26.62
2019-04-30T23:20:26.867Z,28.27
2019-04-30T23:22:55.241Z,27.50
2019-04-30T23:25:24.118Z,27.58
2019-04-30T23:27:53.685Z,26.33
2019-04-30T23:30:21.622Z,27.67
2019-04-30T23:32:50.155Z,27.02
2019-04-30T23:35:40.837Z,26.77
2019-04-30T23:38:08.804Z,28.67
2019-04-30T23:40:56.658Z,28.55
2019-04-30T23:43:31.264Z,29.98
2019-04-30T23:46:07.697Z,29.80
2019-04-30T23:48:41.167Z,30.43
2019-04-30T23:51:10.597Z,29.02
2019-04-30T23:53:54.420Z,31.52
2019-04-30T23:56:22.898Z,30.95
2019-04-30T23:58:51.036Z,32.93
